createdAt,value
2022-12-12T00:02:40.746Z,-15.72
2022-12-12T00:05:45.291Z,-15.92
2022-12-12T00:08:49.701Z,-15.80
2022-12-12T00:11:54.183Z,-15.49
2022-12-12T00:14:58.441Z,-15.40
2022-12-12T00:18:02.756Z,-15.22
2022-12-12T00:21:12.806Z,-15.38
2022-12-12T00:24:16.906Z,-15.20
2022-12-12T00:27:21.295Z,-15.11
2022-12-12T00:30:26.038Z,-14.94
2022-12-12T00:33:30.400Z,-14.78
2022-12-12T00:36:35.087Z,-15.12
2022-12-12T00:39:39.832Z,-14.99
2022-12-12T00:42:44.301Z,-14.98
2022-12-12T00:45:48.699Z,-14.72
2022-12-12T00:48:57.124Z,-14.43
2022-12-12T00:52:01.616Z,-14.91
2022-12-12T00:55:06.674Z,-14.86
2022-12-12T00:58:10.981Z,-14.55
2022-12-12T01:01:19.616Z,-14.78
2022-12-12T01:04:24.203Z,-14.49
2022-12-12T01:07:29.530Z,-14.25
2022-12-12T01:10:35.272Z,-14.18
2022-12-12T01:13:40.593Z,-14.05
2022-12-12T01:16:44.998Z,-14.20
2022-12-12T01:19:49.426Z,-13.96
2022-12-12T01:22:54.344Z,-13.71
2022-12-12T01:26:03.569Z,-13.74
2022-12-12T01:29:08.064Z,-13.80
2022-12-12T01:32:13.658Z,-13.44
2022-12-12T01:35:18.748Z,-13.34
2022-12-12T01:38:25.423Z,-13.39
2022-12-12T01:41:29.997Z,-13.33
2022-12-12T01:44:49.221Z,-13.59
2022-12-12T01:47:53.744Z,-13.35
2022-12-12T01:51:01.140Z,-13.29
2022-12-12T01:54:27.867Z,-13.45
2022-12-12T01:57:36.305Z,-13.37
2022-12-12T02:00:41.734Z,-13.38
2022-12-12T02:03:49.058Z,-12.94
2022-12-12T02:06:54.443Z,-13.01
2022-12-12T02:09:58.350Z,-13.59
2022-12-12T02:13:10.707Z,-13.76
2022-12-12T02:16:36.593Z,-13.74
2022-12-12T02:20:25.579Z,-13.83
2022-12-12T02:23:38.707Z,-13.18
2022-12-12T02:27:08.363Z,-12.95
2022-12-12T02:30:25.631Z,-12.97
2022-12-12T02:34:00.444Z,-12.85
2022-12-12T02:37:34.974Z,-12.71
2022-12-12T02:41:11.338Z,-12.83
2022-12-12T02:44:27.175Z,-12.95
2022-12-12T02:47:40.867Z,-12.94
2022-12-12T02:50:48.266Z,-12.76
2022-12-12T02:53:52.609Z,-12.61
2022-12-12T02:56:59.765Z,-12.46
2022-12-12T03:00:14.626Z,-12.21
2022-12-12T03:03:58.412Z,-12.44
2022-12-12T03:07:33.717Z,-12.37
2022-12-12T03:10:45.233Z,-12.11
2022-12-12T03:14:07.656Z,-12.06
2022-12-12T03:17:17.021Z,-11.87
2022-12-12T03:20:26.471Z,-11.78
2022-12-12T03:23:49.170Z,-11.75
2022-12-12T03:27:18.185Z,-11.69
2022-12-12T03:30:22.841Z,-11.63
2022-12-12T03:33:46.929Z,-11.57
2022-12-12T03:36:59.772Z,-11.81
2022-12-12T03:40:20.533Z,-11.82
2022-12-12T03:43:47.421Z,-11.82
2022-12-12T03:47:17.609Z,-11.58
2022-12-12T03:50:31.647Z,-11.61
2022-12-12T03:53:59.256Z,-11.31
2022-12-12T03:57:11.393Z,-11.32
2022-12-12T04:00:17.277Z,-11.25
2022-12-12T04:03:39.842Z,-11.19
2022-12-12T04:07:00.597Z,-11.17
2022-12-12T04:10:25.515Z,-11.54
2022-12-12T04:13:44.662Z,-11.41
2022-12-12T04:17:01.318Z,-11.39
2022-12-12T04:20:29.653Z,-11.27
2022-12-12T04:23:56.924Z,-11.28
2022-12-12T04:27:22.849Z,-11.08
2022-12-12T04:30:30.610Z,-11.18
2022-12-12T04:33:44.868Z,-11.22
2022-12-12T04:36:50.761Z,-11.43
2022-12-12T04:40:00.092Z,-11.45
2022-12-12T04:43:10.371Z,-11.42
2022-12-12T04:46:22.739Z,-11.41
2022-12-12T04:49:31.293Z,-11.39
2022-12-12T04:52:36.543Z,-11.47
2022-12-12T04:55:46.347Z,-11.52
2022-12-12T04:58:51.126Z,-11.27
2022-12-12T05:02:06.246Z,-11.10
2022-12-12T05:05:23.964Z,-10.99
2022-12-12T05:08:39.381Z,-10.88
2022-12-12T05:11:44.144Z,-10.88
2022-12-12T05:14:49.417Z,-10.94
2022-12-12T05:18:00.807Z,-11.28
2022-12-12T05:21:05.305Z,-11.16
2022-12-12T05:24:10.018Z,-11.05
2022-12-12T05:27:14.550Z,-11.50
2022-12-12T05:30:19.315Z,-11.17
2022-12-12T05:33:25.048Z,-11.17
2022-12-12T05:36:29.375Z,-11.29
2022-12-12T05:39:33.814Z,-11.16
2022-12-12T05:42:38.094Z,-11.05
2022-12-12T05:45:44.072Z,-10.81
2022-12-12T05:48:51.629Z,-10.64
2022-12-12T05:51:55.992Z,-10.65
2022-12-12T05:55:00.302Z,-10.60
2022-12-12T05:58:07.241Z,-10.68
2022-12-12T06:01:12.537Z,-10.48
2022-12-12T06:04:16.950Z,-10.54
2022-12-12T06:07:22.753Z,-10.66
2022-12-12T06:10:27.362Z,-10.36
2022-12-12T06:13:32.024Z,-10.52
2022-12-12T06:16:36.941Z,-10.82
2022-12-12T06:19:41.174Z,-10.93
2022-12-12T06:22:52.020Z,-10.84
2022-12-12T06:25:58.060Z,-10.92
2022-12-12T06:29:02.574Z,-10.70
2022-12-12T06:32:07.486Z,-10.50
2022-12-12T06:35:13.425Z,-10.63
2022-12-12T06:38:18.010Z,-10.44
2022-12-12T06:41:23.397Z,-10.37
2022-12-12T06:44:27.491Z,-10.42
2022-12-12T06:47:32.050Z,-10.34
2022-12-12T06:50:40.020Z,-10.41
2022-12-12T06:53:44.744Z,-10.14
2022-12-12T06:56:50.619Z,-10.30
2022-12-12T06:59:54.950Z,-10.21
2022-12-12T07:02:59.730Z,-10.12
2022-12-12T07:06:04.834Z,-9.90
2022-12-12T07:09:10.039Z,-9.75
2022-12-12T07:12:15.058Z,-9.86
2022-12-12T07:15:19.360Z,-9.80
2022-12-12T07:18:23.777Z,-9.85
2022-12-12T07:21:28.306Z,-10.07
2022-12-12T07:24:32.638Z,-10.22
2022-12-12T07:27:37.075Z,-10.02
2022-12-12T07:30:55.266Z,-9.91
2022-12-12T07:34:03.023Z,-9.73
2022-12-12T07:37:07.539Z,-9.96
2022-12-12T07:40:13.225Z,-9.83
2022-12-12T07:43:17.099Z,-9.78
2022-12-12T07:46:25.525Z,-9.98
2022-12-12T07:49:31.002Z,-9.98
2022-12-12T07:52:35.643Z,-9.95
2022-12-12T07:55:41.564Z,-9.81
2022-12-12T07:58:47.075Z,-9.74
2022-12-12T08:01:51.305Z,-9.48
2022-12-12T08:04:56.046Z,-9.50
2022-12-12T08:08:00.419Z,-9.46
2022-12-12T08:11:09.954Z,-9.23
2022-12-12T08:14:14.871Z,-8.87
2022-12-12T08:17:19.054Z,-9.34
2022-12-12T08:20:23.885Z,-9.02
2022-12-12T08:23:28.455Z,-8.75
2022-12-12T08:26:33.125Z,-8.93
2022-12-12T08:29:37.724Z,-8.58
2022-12-12T08:32:41.965Z,-8.75
2022-12-12T08:35:46.874Z,-8.77
2022-12-12T08:38:53.202Z,-8.75
2022-12-12T08:41:57.645Z,-8.78
2022-12-12T08:45:01.911Z,-8.67
2022-12-12T08:48:08.424Z,-8.69
2022-12-12T08:51:12.888Z,-8.64
2022-12-12T08:54:17.440Z,-8.47
2022-12-12T08:57:25.896Z,-8.32
2022-12-12T09:00:30.986Z,-8.23
2022-12-12T09:03:35.691Z,-8.37
2022-12-12T09:06:40.458Z,-8.47
2022-12-12T09:09:45.088Z,-8.23
2022-12-12T09:12:49.487Z,-8.21
2022-12-12T09:15:55.174Z,-8.35
2022-12-12T09:18:59.717Z,-8.18
2022-12-12T09:22:05.254Z,-8.22
2022-12-12T09:25:09.998Z,-7.85
2022-12-12T09:28:17.031Z,-8.15
2022-12-12T09:31:22.461Z,-8.10
2022-12-12T09:34:26.888Z,-8.07
2022-12-12T09:37:31.573Z,-8.10
2022-12-12T09:40:55.422Z,-8.25
2022-12-12T09:44:04.826Z,-8.28
2022-12-12T09:47:16.878Z,-8.08
2022-12-12T09:50:39.126Z,-8.23
2022-12-12T09:53:46.609Z,-8.17
2022-12-12T09:57:07.508Z,-8.19
2022-12-12T10:00:16.213Z,-8.29
2022-12-12T10:03:33.217Z,-8.25
2022-12-12T10:06:56.475Z,-8.07
2022-12-12T10:10:16.775Z,-7.97
2022-12-12T10:13:27.893Z,-8.06
2022-12-12T10:16:34.063Z,-8.23
2022-12-12T10:19:49.595Z,-8.08
2022-12-12T10:22:56.732Z,-8.54
2022-12-12T10:26:16.988Z,-8.04
2022-12-12T10:29:24.959Z,-8.27
2022-12-12T10:32:41.629Z,-8.15
2022-12-12T10:35:55.745Z,-8.06
2022-12-12T10:39:30.941Z,-8.12
2022-12-12T10:42:43.960Z,-8.32
2022-12-12T10:46:14.473Z,-8.22
2022-12-12T10:49:22.284Z,-8.07
2022-12-12T10:52:26.733Z,-8.11
2022-12-12T10:55:45.626Z,-7.53
2022-12-12T10:59:04.939Z,-7.85
2022-12-12T11:02:23.819Z,-7.80
2022-12-12T11:05:32.842Z,-7.71
2022-12-12T11:08:39.009Z,-7.77
2022-12-12T11:12:06.208Z,-7.79
2022-12-12T11:15:21.206Z,-7.71
2022-12-12T11:18:26.971Z,-7.90
2022-12-12T11:21:35.073Z,-7.96
2022-12-12T11:24:45.059Z,-7.90
2022-12-12T11:27:49.681Z,-7.78
2022-12-12T11:30:57.373Z,-7.67
2022-12-12T11:34:08.784Z,-7.69
2022-12-12T11:37:21.996Z,-7.59
2022-12-12T11:40:30.015Z,-7.53
2022-12-12T11:43:38.519Z,-7.83
2022-12-12T11:46:42.959Z,-7.90
2022-12-12T11:49:53.478Z,-7.75
2022-12-12T11:53:03.993Z,-7.93
2022-12-12T11:56:20.313Z,-8.04
2022-12-12T12:00:04.024Z,-8.09
2022-12-12T12:03:23.952Z,-8.09
2022-12-12T12:06:50.173Z,-8.31
2022-12-12T12:10:21.057Z,-8.03
2022-12-12T12:13:28.881Z,-8.16
2022-12-12T12:16:51.829Z,-7.92
2022-12-12T12:20:20.984Z,-7.89
2022-12-12T12:23:41.254Z,-7.88
2022-12-12T12:26:55.022Z,-7.81
2022-12-12T12:30:17.347Z,-7.77
2022-12-12T12:33:27.073Z,-7.53
2022-12-12T12:36:55.790Z,-7.65
2022-12-12T12:40:14.160Z,-7.72
2022-12-12T12:43:30.584Z,-7.65
2022-12-12T12:46:44.074Z,-7.70
2022-12-12T12:50:04.189Z,-7.65
2022-12-12T12:53:44.601Z,-7.44
2022-12-12T12:56:57.745Z,-7.52
2022-12-12T13:00:24.065Z,-7.43
2022-12-12T13:03:33.038Z,-7.61
2022-12-12T13:06:58.853Z,-7.52
2022-12-12T13:10:16.070Z,-7.61
2022-12-12T13:13:31.415Z,-7.28
2022-12-12T13:16:36.192Z,-7.33
2022-12-12T13:19:44.244Z,-7.29
2022-12-12T13:23:07.205Z,-7.25
2022-12-12T13:26:50.476Z,-7.34
2022-12-12T13:30:19.666Z,-7.23
2022-12-12T13:33:50.884Z,-7.02
2022-12-12T13:36:57.233Z,-7.07
2022-12-12T13:40:05.754Z,-7.01
2022-12-12T13:43:32.485Z,-7.11
2022-12-12T13:46:41.995Z,-7.06
2022-12-12T13:50:19.747Z,-7.25
2022-12-12T13:53:24.163Z,-7.03
2022-12-12T13:57:04.762Z,-7.05
2022-12-12T14:00:18.827Z,-7.10
2022-12-12T14:03:30.835Z,-6.92
2022-12-12T14:06:35.455Z,-7.08
2022-12-12T14:09:50.342Z,-6.63
2022-12-12T14:12:56.202Z,-6.60
2022-12-12T14:16:04.593Z,-6.77
2022-12-12T14:19:22.160Z,-6.61
2022-12-12T14:23:09.356Z,-6.55
2022-12-12T14:26:28.943Z,-6.69
2022-12-12T14:29:41.397Z,-6.56
2022-12-12T14:33:05.961Z,-6.76
2022-12-12T14:36:44.113Z,-6.48
2022-12-12T14:40:01.402Z,-6.55
2022-12-12T14:43:18.837Z,-6.45
2022-12-12T14:46:26.885Z,-6.70
2022-12-12T14:49:31.692Z,-6.65
2022-12-12T14:52:36.605Z,-6.38
2022-12-12T14:56:09.872Z,-6.69
2022-12-12T14:59:20.582Z,-6.66
2022-12-12T15:02:35.800Z,-6.21
2022-12-12T15:05:40.576Z,-6.17
2022-12-12T15:08:45.541Z,-6.44
2022-12-12T15:11:50.989Z,-6.21
2022-12-12T15:14:57.797Z,-6.40
2022-12-12T15:18:03.509Z,-6.18
2022-12-12T15:21:09.119Z,-6.11
2022-12-12T15:24:25.799Z,-6.13
2022-12-12T15:27:46.926Z,-5.90
2022-12-12T15:30:56.042Z,-6.07
2022-12-12T15:34:02.842Z,-6.31
2022-12-12T15:37:26.150Z,-6.41
2022-12-12T15:40:33.069Z,-6.38
2022-12-12T15:43:39.622Z,-6.24
2022-12-12T15:46:44.542Z,-6.21
2022-12-12T15:49:49.042Z,-6.33
2022-12-12T15:53:24.252Z,-6.28
2022-12-12T15:56:30.687Z,-6.33
2022-12-12T15:59:35.267Z,-6.19
2022-12-12T16:02:41.718Z,-6.38
2022-12-12T16:05:58.083Z,-6.18
2022-12-12T16:09:27.496Z,-6.29
2022-12-12T16:13:26.319Z,-6.32
2022-12-12T16:16:42.754Z,-6.45
2022-12-12T16:19:55.813Z,-6.20
2022-12-12T16:23:30.447Z,-6.29
2022-12-12T16:26:34.779Z,-6.30
2022-12-12T16:29:39.101Z,-6.08
2022-12-12T16:32:44.514Z,-6.09
2022-12-12T16:35:49.432Z,-6.00
2022-12-12T16:38:54.081Z,-6.00
2022-12-12T16:41:58.721Z,-6.06
2022-12-12T16:45:03.350Z,-6.20
2022-12-12T16:48:25.490Z,-6.06
2022-12-12T16:51:31.614Z,-6.18
2022-12-12T16:54:35.846Z,-6.12
2022-12-12T16:57:40.381Z,-5.93
2022-12-12T17:00:46.060Z,-5.81
2022-12-12T17:03:50.365Z,-5.92
2022-12-12T17:06:55.537Z,-5.94
2022-12-12T17:09:59.864Z,-6.03
2022-12-12T17:13:09.290Z,-5.96
2022-12-12T17:16:13.939Z,-5.94
2022-12-12T17:19:18.566Z,-6.03
2022-12-12T17:22:22.962Z,-5.93
2022-12-12T17:25:27.237Z,-5.91
2022-12-12T17:28:32.366Z,-5.91
2022-12-12T17:31:41.036Z,-5.89
2022-12-12T17:34:45.706Z,-5.91
2022-12-12T17:37:50.282Z,-5.99
2022-12-12T17:40:57.469Z,-5.68
2022-12-12T17:44:01.983Z,-5.71
2022-12-12T17:47:06.373Z,-5.66
2022-12-12T17:50:11.550Z,-5.88
2022-12-12T17:53:16.005Z,-5.52
2022-12-12T17:56:26.326Z,-5.76
2022-12-12T17:59:30.529Z,-5.69
2022-12-12T18:02:34.991Z,-5.70
2022-12-12T18:05:39.400Z,-5.95
2022-12-12T18:08:45.289Z,-5.99
2022-12-12T18:11:49.872Z,-5.96
2022-12-12T18:14:54.243Z,-6.16
2022-12-12T18:17:58.677Z,-6.41
2022-12-12T18:21:08.320Z,-5.94
2022-12-12T18:24:13.316Z,-5.85
2022-12-12T18:27:17.673Z,-6.33
2022-12-12T18:30:22.316Z,-6.03
2022-12-12T18:33:26.956Z,-6.02
2022-12-12T18:36:32.699Z,-6.03
2022-12-12T18:39:37.362Z,-6.10
2022-12-12T18:42:41.972Z,-6.12
2022-12-12T18:45:46.489Z,-6.04
2022-12-12T18:48:51.344Z,-6.14
2022-12-12T18:51:55.778Z,-6.22
2022-12-12T18:55:00.428Z,-6.23
2022-12-12T18:58:04.810Z,-6.13
2022-12-12T19:01:24.048Z,-6.33
2022-12-12T19:04:28.610Z,-6.64
2022-12-12T19:07:33.164Z,-6.59
2022-12-12T19:10:38.921Z,-6.58
2022-12-12T19:13:44.890Z,-6.50
2022-12-12T19:16:49.604Z,-6.61
2022-12-12T19:19:54.792Z,-6.47
2022-12-12T19:22:59.420Z,-6.60
2022-12-12T19:26:12.380Z,-6.39
2022-12-12T19:29:19.461Z,-6.20
2022-12-12T19:32:23.920Z,-6.00
2022-12-12T19:35:28.338Z,-6.26
2022-12-12T19:38:32.922Z,-6.60
2022-12-12T19:41:37.439Z,-6.54
2022-12-12T19:44:43.553Z,-6.26
2022-12-12T19:47:48.064Z,-6.17
2022-12-12T19:50:52.796Z,-6.33
2022-12-12T19:53:59.334Z,-6.22
2022-12-12T19:57:03.672Z,-6.38
2022-12-12T20:00:10.431Z,-6.43
2022-12-12T20:03:14.528Z,-6.53
2022-12-12T20:06:19.734Z,-6.68
2022-12-12T20:09:36.127Z,-6.56
2022-12-12T20:12:47.056Z,-6.51
2022-12-12T20:16:04.136Z,-6.38
2022-12-12T20:19:08.709Z,-6.05
2022-12-12T20:22:13.114Z,-6.04
2022-12-12T20:25:17.493Z,-6.02
2022-12-12T20:28:22.211Z,-6.09
2022-12-12T20:31:29.588Z,-6.21
2022-12-12T20:34:34.162Z,-6.43
2022-12-12T20:37:39.096Z,-6.84
2022-12-12T20:40:43.610Z,-6.81
2022-12-12T20:43:48.886Z,-6.66
2022-12-12T20:46:53.333Z,-6.71
2022-12-12T20:49:57.992Z,-7.03
2022-12-12T20:53:02.344Z,-6.83
2022-12-12T20:56:12.125Z,-7.06
2022-12-12T20:59:16.555Z,-6.91
2022-12-12T21:02:23.061Z,-6.90
2022-12-12T21:05:31.241Z,-6.91
2022-12-12T21:08:36.036Z,-6.83
2022-12-12T21:11:40.727Z,-6.65
2022-12-12T21:14:45.253Z,-6.57
2022-12-12T21:17:49.611Z,-6.55
2022-12-12T21:20:53.854Z,-6.41
2022-12-12T21:23:58.839Z,-6.43
2022-12-12T21:27:03.177Z,-6.34
2022-12-12T21:30:08.377Z,-6.70
2022-12-12T21:33:12.841Z,-6.79
2022-12-12T21:36:19.763Z,-7.28
2022-12-12T21:39:27.576Z,-7.18
2022-12-12T21:42:32.230Z,-7.25
2022-12-12T21:45:39.117Z,-7.08
2022-12-12T21:48:43.412Z,-7.17
2022-12-12T21:51:48.168Z,-7.18
2022-12-12T21:54:52.600Z,-7.03
2022-12-12T21:57:56.960Z,-7.06
2022-12-12T22:01:10.716Z,-7.03
2022-12-12T22:04:15.884Z,-7.07
2022-12-12T22:07:21.661Z,-7.18
2022-12-12T22:10:25.890Z,-7.25
2022-12-12T22:13:33.159Z,-7.20
2022-12-12T22:16:41.164Z,-7.22
2022-12-12T22:19:45.811Z,-7.24
2022-12-12T22:22:50.432Z,-7.21
2022-12-12T22:25:55.069Z,-7.18
2022-12-12T22:29:03.576Z,-6.93
2022-12-12T22:32:07.856Z,-6.94
2022-12-12T22:35:12.831Z,-7.10
2022-12-12T22:38:17.381Z,-7.11
2022-12-12T22:41:22.815Z,-7.06
2022-12-12T22:44:27.743Z,-6.99
2022-12-12T22:47:32.169Z,-6.80
2022-12-12T22:50:36.804Z,-6.78
2022-12-12T22:53:44.369Z,-6.66
2022-12-12T22:56:49.265Z,-6.62
2022-12-12T22:59:53.590Z,-6.42
2022-12-12T23:02:58.070Z,-6.51
2022-12-12T23:06:12.066Z,-6.38
2022-12-12T23:09:22.441Z,-6.40
2022-12-12T23:12:26.818Z,-6.34
2022-12-12T23:15:31.307Z,-6.34
2022-12-12T23:18:38.628Z,-6.56
2022-12-12T23:21:43.419Z,-6.16
2022-12-12T23:24:48.405Z,-5.99
2022-12-12T23:27:52.857Z,-5.71
2022-12-12T23:30:57.655Z,-5.56
2022-12-12T23:34:05.185Z,-6.04
2022-12-12T23:37:10.246Z,-5.77
2022-12-12T23:40:14.783Z,-6.15
2022-12-12T23:43:19.419Z,-6.08
2022-12-12T23:46:32.235Z,-6.16
2022-12-12T23:49:36.841Z,-6.29
2022-12-12T23:52:41.220Z,-6.45
2022-12-12T23:55:45.564Z,-6.42
2022-12-12T23:58:49.940Z,-6.72
